Fernando Alvarez

Recruteur - Leon
8 Nov 2026
Dimanche
Processus

Personnalité

Adaptabilité (18) Ambition (1) Controverse (16) Loyauté (17) Pression (3) Professionnalisme (14) Sportivité (9) Tempérament (18)

Profil

Style d'entraînement Démocratique
Diplôme Continental A
Détermination 6
Gestion des joueurs 9
Motivation 7
Discipline 9
Satisfaction professionnelle
50%
Fatigue
0%
Rôle Recruteur
Salaire 40.2K p/s
Contrat 14.03.2027

Performance

Comportement Normal
Efficacité de l'entraînement
23%
Développement des joueurs
40%
Prévention des blessures
55%
Mise en place tactique
25%

Événements récents

A évalué un joueur maintenant
A participé à une réunion de recrutement maintenant
A évalué un joueur maintenant
A évalué un joueur 7j
A participé à une réunion de recrutement 7j
A évalué un joueur 7j
A évalué un joueur 7j
A évalué un joueur 7j

Suivi en cours

95
Joueur Club Statut Capacité Confiance Observé Dernière observation Dernier vote
Facundo Vila Estudiantes Actif 94 / 97 40% 2 06.11.2026 -
Santino Barbi Talleres Actif 108 / 109 40% 1 06.11.2026 -
Joaquín Enrico San Telmo Actif 111 / 94 40% 1 06.11.2026 -
Lucas Noubi Deportivo La Coruña Actif 98 / 128 40% 2 05.11.2026 -
Léyder Morán Once Caldas Actif 95 / 100 40% 1 05.11.2026 -
Juan Pablo De la Reta Maipú Actif 112 / 113 40% 1 05.11.2026 -
Juan Cruz de los Santos Nacional Actif 121 / 117 40% 4 04.11.2026 -
Mauro Valiente Estudiantes Actif 118 / 107 40% 1 04.11.2026 -
Arjan Malić Sturm Graz Actif 114 / 140 40% 1 02.11.2026 -
Samuel Lucero Defensa y Justicia Actif 115 / 117 40% 1 02.11.2026 -
Kein Sato FC Tokyo Actif 119 / 127 40% 2 01.11.2026 -
Alejandro Medina La Equidad Actif 118 / 132 40% 1 01.11.2026 -
Etiosa Ighodaro Kaizer Chiefs Actif 100 / 91 40% 1 01.11.2026 -
Cesar Corona Veracruz Actif 137 / 140 40% 3 30.10.2026 -
Percy Erasmus SuperSport United Actif 119 / 118 40% 1 30.10.2026 -
Itumeleng Tau Ajax Cape Town Actif 110 / 128 40% 1 30.10.2026 -
Manuel Roffo Cerro Porteno Actif 120 / 135 40% 2 28.10.2026 -
Enzo Vázquez Central Norte Actif 111 / 116 40% 1 28.10.2026 -
Alejandro Rodríguez Deportivo Cali Actif 128 / 130 40% 1 28.10.2026 -
Nahuel Manganelli Dinamo Batumi Actif 101 / 126 40% 1 26.10.2026 -
Felipe San Juan Gimnasia y Esgrima Actif 102 / 108 40% 1 26.10.2026 -
Mauro Silveira Junior Actif 112 / 121 40% 1 26.10.2026 -
Ignacio Russo Tigre Actif 128 / 135 40% 2 24.10.2026 -
Florián Monzón Atlas Actif 118 / 139 40% 1 24.10.2026 -
Kasper Høgh Bloemfontein Celtic Actif 137 / 137 40% 1 24.10.2026 -
Chris Brady Chicago Fire Actif 137 / 142 40% 2 22.10.2026 -
Grégoire Coudert Burnley Actif 125 / 112 40% 1 22.10.2026 -
Nathan Trott Cardiff City Actif 121 / 132 40% 1 22.10.2026 -
Nicolás Sumavil Platense Actif 124 / 115 40% 2 19.10.2026 -
Julen Agirrezabala Racing Club Actif 142 / 149 40% 2 19.10.2026 -
Luciano Jachfe Nueva Chicago Actif 108 / 117 40% 1 19.10.2026 -
Leandro Brey Boca Juniors Actif 114 / 120 40% 1 16.10.2026 -
Sebastian Hernandez Cortulua Actif 108 / 110 40% 1 16.10.2026 -
Agustín Hausch Defensa y Justicia Actif 119 / 116 40% 1 14.10.2026 -
Adrián Niño Málaga Actif 128 / 114 40% 1 14.10.2026 -
Juan Moreno Cerro Largo Actif 116 / 116 40% 2 13.10.2026 -
Nicolás Bolcato Independiente Rivadavia Actif 113 / 105 40% 1 13.10.2026 -
Francisco Salerno Defensores Unidos Actif 108 / 105 40% 1 13.10.2026 -
Tadeo Allende Inter Miami CF Actif 124 / 111 40% 2 12.10.2026 -
Renzo Reynaga Patronato Actif 107 / 117 40% 1 12.10.2026 -
Jonathan Dellarossa Stromsgodset Actif 115 / 113 40% 2 11.10.2026 -
Ruyery Blanco Alianza Petrolera Actif 115 / 97 40% 1 11.10.2026 -
Yojan Garcés America de Cali Actif 114 / 129 40% 1 11.10.2026 -
Enzo Avaro Mitre Actif 115 / 106 40% 1 10.10.2026 -
Yoshan Valois Lanús Actif 123 / 119 40% 1 10.10.2026 -
Alan Velasco Boca Juniors Actif 120 / 139 40% 1 09.10.2026 -
Agustín Ruberto River Plate Actif 110 / 130 40% 1 09.10.2026 -
Roman Celentano FC Cincinnati Actif 126 / 105 40% 2 08.10.2026 -
Gastón Fernández Chacarita Juniors Actif 98 / 101 40% 1 08.10.2026 -
Pol Tristán Bradford City Actif 101 / 97 40% 2 06.10.2026 -
Sebastián Meza Huracán Actif 124 / 130 40% 1 06.10.2026 -
Nahuel Yzaurralde Quilmes Actif 100 / 97 40% 2 04.10.2026 -
Agustín Lastra Estudiantes Actif 114 / 116 40% 1 04.10.2026 -
Alexander Díaz Deportivo Riestra Actif 123 / 105 40% 1 03.10.2026 -
Nicolás Cordero Aldosivi Actif 111 / 128 40% 1 03.10.2026 -
Joel Orlando Almagro Actif 110 / 126 40% 1 03.10.2026 -
Facundo Krüger Temperley Actif 115 / 117 40% 2 02.10.2026 -
Luca Martínez Dupuy Godoy Cruz Actif 124 / 131 40% 1 02.10.2026 -
Ramiro Ruiz Rodríguez Atlético Tucumán Actif 116 / 119 40% 1 29.09.2026 -
Justo Giani Universidad Catolica Actif 113 / 113 40% 1 28.09.2026 -
Erik Bodencer Central Norte Actif 108 / 105 40% 1 27.09.2026 -
Luca Orellano Monterrey Actif 126 / 123 40% 1 27.09.2026 -
Lucio Castillo Colegiales Actif 109 / 119 40% 1 27.09.2026 -
Cristopher Varela Deportivo La Guaira Actif 111 / 121 40% 1 24.09.2026 -
Nahuel Suárez La Luz Actif 114 / 103 40% 1 24.09.2026 -
Tomás Ahumada Audax Italiano Actif 107 / 117 40% 2 20.09.2026 -
Dmytro Riznyk Shakhtar Actif 152 / 151 40% 1 20.09.2026 -
Rodrigo Morínigo Libertad Actif 118 / 119 40% 1 20.09.2026 -
Damián Fernández Rosario Central Actif 101 / 104 40% 1 15.09.2026 -
CJ dos Santos San Diego Football Club Actif 104 / 115 40% 1 15.09.2026 -
Héctor Holguín Gamba Osaka Actif 93 / 125 40% 1 13.09.2026 -
Fernando Rodriguez Boca Juniors Actif 98 / 91 40% 1 13.09.2026 -
Adrián Alavés Actif 104 / 118 40% 1 13.09.2026 -
Taisei Miyashiro Seattle Sounders Actif 117 / 129 40% 1 12.09.2026 -
Liel Abada Charlotte Football Club Actif 138 / 133 40% 1 12.09.2026 -
Agustín Venezia Iquique Actif 115 / 122 40% 1 12.09.2026 -
Patrick Schulte Columbus Crew Actif 127 / 117 40% 1 11.09.2026 -
Lukáš Horníček Newcastle United Actif 142 / 156 40% 1 11.09.2026 -
Javier Vallejos Central Córdoba SdE Actif 95 / 107 40% 1 11.09.2026 -
Franco Carretero Deportivo Lara Actif 102 / 101 40% 1 10.09.2026 -
Gonzalo Córdoba Lokomotivi Actif 117 / 94 40% 1 09.09.2026 -
Wessam Abou Ali Columbus Crew Actif 130 / 125 40% 1 09.09.2026 -
Efraín Álvarez Guadalajara Actif 133 / 129 40% 1 08.09.2026 -
Clemente Montes Universidad Catolica Actif 119 / 123 40% 1 08.09.2026 -
Ian Garguez Palestino Actif 114 / 101 40% 1 21.08.2026 -
Obed Vargas Atlético Madrid Actif 129 / 131 40% 1 21.08.2026 -
Tomás Guiacobini Sarmiento Actif 110 / 112 40% 1 21.08.2026 -
Daniel Herrera Cortulua Actif 104 / 119 40% 1 20.08.2026 -
Ville Koski Alavés Actif 119 / 123 40% 1 20.08.2026 -
Matías Gómez Celta Actif 121 / 108 40% 1 18.08.2026 -
Sergio Arribas Betis Actif 120 / 108 40% 1 18.08.2026 -
Carlos Faya Deportivo La Guaira Actif 101 / 122 40% 1 18.08.2026 -
Fernando Valenzuela Queretaro Perdu 116 / 130 65% 1 03.08.2026 Approuver
Mauricio Cardillo San Lorenzo Actif 106 / 114 40% 1 01.08.2026 -
Iker Muñoz Osasuna Actif 133 / 129 40% 1 01.08.2026 -